createdAt,value
2023-04-18T00:01:03.786Z,100195.88
2023-04-18T00:04:06.662Z,100184.56
2023-04-18T00:07:09.105Z,100182.00
2023-04-18T00:10:11.816Z,100195.16
2023-04-18T00:13:14.173Z,100186.16
2023-04-18T00:16:16.879Z,100193.69
2023-04-18T00:19:20.140Z,100194.06
2023-04-18T00:22:22.951Z,100193.88
2023-04-18T00:25:25.352Z,100191.75
2023-04-18T00:28:28.025Z,100193.09
2023-04-18T00:31:30.811Z,100195.75
2023-04-18T00:34:33.440Z,100200.59
2023-04-18T00:37:35.903Z,100194.47
2023-04-18T00:40:38.909Z,100197.75
2023-04-18T00:43:41.384Z,100201.91
2023-04-18T00:46:44.179Z,100196.44
2023-04-18T00:49:47.957Z,100195.59
2023-04-18T00:52:52.081Z,100193.47
2023-04-18T00:55:55.021Z,100199.63
2023-04-18T00:58:57.971Z,100197.75
2023-04-18T01:02:02.264Z,100192.44
2023-04-18T01:05:06.105Z,100193.47
2023-04-18T01:08:08.511Z,100184.38
2023-04-18T01:11:11.251Z,100187.19
2023-04-18T01:14:15.092Z,100188.19
2023-04-18T01:17:19.362Z,100193.50
2023-04-18T01:20:21.832Z,100192.87
2023-04-18T01:23:24.422Z,100188.84
2023-04-18T01:26:27.309Z,100188.78
2023-04-18T01:29:29.876Z,100190.28
2023-04-18T01:32:32.263Z,100190.09
2023-04-18T01:35:34.950Z,100186.97
2023-04-18T01:38:37.693Z,100185.06
2023-04-18T01:41:41.515Z,100185.44
2023-04-18T01:44:45.123Z,100185.91
2023-04-18T01:47:48.331Z,100191.75
2023-04-18T01:50:50.966Z,100187.09
2023-04-18T01:53:53.690Z,100187.72
2023-04-18T01:56:55.950Z,100190.75
2023-04-18T01:59:58.751Z,100190.09
2023-04-18T02:03:01.167Z,100184.59
2023-04-18T02:06:04.539Z,100194.41
2023-04-18T02:09:07.032Z,100190.63
2023-04-18T02:12:10.145Z,100196.13
2023-04-18T02:15:12.462Z,100192.75
2023-04-18T02:18:15.793Z,100192.75
2023-04-18T02:21:18.173Z,100204.91
2023-04-18T02:24:21.162Z,100202.78
2023-04-18T02:27:23.410Z,100197.47
2023-04-18T02:30:26.252Z,100192.34
2023-04-18T02:33:29.277Z,100199.66
2023-04-18T02:36:31.972Z,100194.53
2023-04-18T02:39:34.586Z,100190.53
2023-04-18T02:42:37.136Z,100195.28
2023-04-18T02:45:39.488Z,100197.47
2023-04-18T02:48:42.129Z,100201.31
2023-04-18T02:51:45.226Z,100201.28
2023-04-18T02:54:47.910Z,100197.34
2023-04-18T02:57:50.529Z,100197.81
2023-04-18T03:00:54.482Z,100205.25
2023-04-18T03:03:58.331Z,100204.59
2023-04-18T03:07:01.629Z,100213.22
2023-04-18T03:10:05.412Z,100210.09
2023-04-18T03:13:08.896Z,100209.25
2023-04-18T03:16:11.505Z,100215.19
2023-04-18T03:19:14.526Z,100213.50
2023-04-18T03:22:20.066Z,100218.28
2023-04-18T03:25:24.466Z,100213.81
2023-04-18T03:28:27.053Z,100216.03
2023-04-18T03:31:29.919Z,100215.59
2023-04-18T03:34:32.322Z,100220.44
2023-04-18T03:37:35.264Z,100220.59
2023-04-18T03:40:38.335Z,100218.75
2023-04-18T03:43:41.602Z,100219.59
2023-04-18T03:46:44.284Z,100220.44
2023-04-18T03:49:47.636Z,100221.41
2023-04-18T03:52:50.296Z,100223.44
2023-04-18T03:55:53.212Z,100226.25
2023-04-18T03:58:56.153Z,100223.13
2023-04-18T04:01:59.028Z,100224.16
2023-04-18T04:05:02.746Z,100235.66
2023-04-18T04:08:05.602Z,100235.09
2023-04-18T04:11:09.485Z,100238.47
2023-04-18T04:14:12.761Z,100240.81
2023-04-18T04:17:16.280Z,100248.31
2023-04-18T04:20:24.101Z,100246.34
2023-04-18T04:23:28.266Z,100249.19
2023-04-18T04:26:30.779Z,100261.28
2023-04-18T04:29:35.309Z,100260.28
2023-04-18T04:32:38.957Z,100264.44
2023-04-18T04:35:41.807Z,100264.44
2023-04-18T04:38:45.040Z,100273.03
2023-04-18T04:41:48.910Z,100266.72
2023-04-18T04:44:53.635Z,100277.19
2023-04-18T04:47:57.049Z,100275.03
2023-04-18T04:50:59.889Z,100279.81
2023-04-18T04:54:02.815Z,100272.22
2023-04-18T04:57:05.411Z,100269.69
2023-04-18T05:00:08.649Z,100270.72
2023-04-18T05:03:11.638Z,100279.53
2023-04-18T05:06:20.531Z,100273.88
2023-04-18T05:09:22.944Z,100282.66
2023-04-18T05:12:26.863Z,100282.78
2023-04-18T05:15:29.146Z,100281.63
2023-04-18T05:18:34.365Z,100280.16
2023-04-18T05:21:37.472Z,100282.50
2023-04-18T05:24:40.733Z,100280.66
2023-04-18T05:27:43.470Z,100286.94
2023-04-18T05:30:46.112Z,100295.91
2023-04-18T05:33:48.383Z,100298.37
2023-04-18T05:36:51.117Z,100294.87
2023-04-18T05:39:53.426Z,100295.34
2023-04-18T05:42:56.099Z,100296.31
2023-04-18T05:45:58.447Z,100287.16
2023-04-18T05:49:01.514Z,100301.50
2023-04-18T05:52:04.047Z,100300.34
2023-04-18T05:55:06.906Z,100298.31
2023-04-18T05:58:09.399Z,100302.28
2023-04-18T06:01:14.330Z,100305.84
2023-04-18T06:04:19.575Z,100307.84
2023-04-18T06:07:25.212Z,100303.44
2023-04-18T06:10:28.158Z,100305.94
2023-04-18T06:13:31.111Z,100312.84
2023-04-18T06:16:33.818Z,100306.69
2023-04-18T06:19:36.269Z,100312.13
2023-04-18T06:22:38.969Z,100308.53
2023-04-18T06:25:41.605Z,100320.72
2023-04-18T06:28:44.284Z,100325.03
2023-04-18T06:31:48.363Z,100319.31
2023-04-18T06:34:53.363Z,100323.16
2023-04-18T06:37:56.104Z,100317.75
2023-04-18T06:40:58.697Z,100326.19
2023-04-18T06:44:04.129Z,100321.87
2023-04-18T06:47:07.383Z,100324.91
2023-04-18T06:50:09.833Z,100324.19
2023-04-18T06:53:12.733Z,100335.31
2023-04-18T06:56:15.093Z,100330.69
2023-04-18T06:59:17.842Z,100335.91
2023-04-18T07:02:20.410Z,100332.00
2023-04-18T07:05:23.352Z,100338.53
2023-04-18T07:08:25.742Z,100334.94
2023-04-18T07:11:28.562Z,100337.44
2023-04-18T07:14:32.849Z,100342.22
2023-04-18T07:17:37.776Z,100344.84
2023-04-18T07:20:40.357Z,100352.69
2023-04-18T07:23:42.991Z,100339.50
2023-04-18T07:26:45.374Z,100342.25
2023-04-18T07:29:48.558Z,100352.31
2023-04-18T07:32:50.904Z,100349.47
2023-04-18T07:35:54.002Z,100344.44
2023-04-18T07:38:56.393Z,100362.22
2023-04-18T07:41:59.486Z,100355.44
2023-04-18T07:45:01.902Z,100355.44
2023-04-18T07:48:05.161Z,100364.69
2023-04-18T07:51:07.488Z,100365.81
2023-04-18T07:54:11.239Z,100370.31
2023-04-18T07:57:18.717Z,100365.84
2023-04-18T08:00:21.514Z,100369.37
2023-04-18T08:03:24.887Z,100374.25
2023-04-18T08:06:28.191Z,100370.78
2023-04-18T08:09:30.817Z,100376.59
2023-04-18T08:12:33.543Z,100381.84
2023-04-18T08:15:36.115Z,100382.63
2023-04-18T08:18:38.537Z,100383.06
2023-04-18T08:21:41.135Z,100391.50
2023-04-18T08:25:01.135Z,100379.22
2023-04-18T08:28:06.276Z,100384.53
2023-04-18T08:31:11.859Z,100386.63
2023-04-18T08:34:14.802Z,100387.06
2023-04-18T08:37:17.053Z,100387.75
2023-04-18T08:40:19.883Z,100387.41
2023-04-18T08:43:22.210Z,100393.75
2023-04-18T08:46:24.856Z,100403.13
2023-04-18T08:49:28.349Z,100392.63
2023-04-18T08:52:32.010Z,100394.47
2023-04-18T08:55:34.467Z,100392.53
2023-04-18T08:58:37.504Z,100386.66
2023-04-18T09:01:56.494Z,100390.44
2023-04-18T09:04:59.628Z,100391.59
2023-04-18T09:08:21.456Z,100393.22
2023-04-18T09:11:28.993Z,100393.44
2023-04-18T09:14:32.716Z,100392.78
2023-04-18T09:17:43.650Z,100392.84
2023-04-18T09:20:47.636Z,100381.62
2023-04-18T09:23:50.421Z,100401.38
2023-04-18T09:26:56.920Z,100399.75
2023-04-18T09:30:00.807Z,100396.94
2023-04-18T09:33:06.685Z,100392.59
2023-04-18T09:36:17.146Z,100399.75
2023-04-18T09:39:27.055Z,100397.31
2023-04-18T09:42:35.854Z,100389.13
2023-04-18T09:45:38.770Z,100389.50
2023-04-18T09:48:41.844Z,100393.53
2023-04-18T09:51:44.798Z,100389.34
2023-04-18T09:54:48.320Z,100391.03
2023-04-18T09:57:52.649Z,100392.25
2023-04-18T10:00:56.454Z,100382.00
2023-04-18T10:04:01.539Z,100387.31
2023-04-18T10:07:04.834Z,100385.06
2023-04-18T10:10:07.771Z,100373.66
2023-04-18T10:13:11.942Z,100382.75
2023-04-18T10:16:14.734Z,100379.91
2023-04-18T10:19:20.983Z,100378.09
2023-04-18T10:22:27.390Z,100388.94
2023-04-18T10:25:39.400Z,100378.41
2023-04-18T10:28:53.466Z,100379.31
2023-04-18T10:32:07.007Z,100376.34
2023-04-18T10:35:10.552Z,100375.41
2023-04-18T10:38:22.566Z,100382.75
2023-04-18T10:41:28.477Z,100382.00
2023-04-18T10:44:30.913Z,100384.94
2023-04-18T10:47:33.737Z,100375.19
2023-04-18T10:50:56.223Z,100369.28
2023-04-18T10:54:00.993Z,100374.53
2023-04-18T10:57:04.171Z,100375.22
2023-04-18T11:00:13.865Z,100374.31
2023-04-18T11:03:16.388Z,100369.69
2023-04-18T11:06:19.152Z,100368.63
2023-04-18T11:09:22.728Z,100365.53
2023-04-18T11:12:28.916Z,100361.28
2023-04-18T11:15:31.362Z,100367.38
2023-04-18T11:18:41.417Z,100368.72
2023-04-18T11:21:44.065Z,100367.41
2023-04-18T11:24:47.115Z,100370.47
2023-04-18T11:27:51.698Z,100368.06
2023-04-18T11:30:57.369Z,100381.25
2023-04-18T11:34:01.970Z,100380.56
2023-04-18T11:37:08.398Z,100373.09
2023-04-18T11:40:11.684Z,100373.56
2023-04-18T11:43:20.051Z,100370.53
2023-04-18T11:46:26.989Z,100375.78
2023-04-18T11:49:32.125Z,100361.63
2023-04-18T11:52:35.518Z,100360.13
2023-04-18T11:55:38.182Z,100362.09
2023-04-18T11:58:40.746Z,100359.28
2023-04-18T12:01:43.790Z,100353.53
2023-04-18T12:04:50.257Z,100358.03
2023-04-18T12:07:53.122Z,100355.63
2023-04-18T12:10:55.964Z,100357.12
2023-04-18T12:13:59.476Z,100368.25
2023-04-18T12:17:03.466Z,100365.66
2023-04-18T12:20:09.620Z,100356.72
2023-04-18T12:23:31.243Z,100362.00
2023-04-18T12:26:33.689Z,100360.09
2023-04-18T12:29:36.308Z,100354.81
2023-04-18T12:32:39.189Z,100360.78
2023-04-18T12:35:42.504Z,100355.69
2023-04-18T12:38:45.818Z,100350.03
2023-04-18T12:41:49.830Z,100359.06
2023-04-18T12:44:52.604Z,100366.72
2023-04-18T12:47:55.193Z,100360.62
2023-04-18T12:50:57.660Z,100360.44
2023-04-18T12:54:00.333Z,100362.28
2023-04-18T12:57:03.297Z,100355.41
2023-04-18T13:00:13.015Z,100355.94
2023-04-18T13:03:15.586Z,100358.66
2023-04-18T13:06:18.298Z,100358.72
2023-04-18T13:09:20.663Z,100352.47
2023-04-18T13:12:23.560Z,100352.87
2023-04-18T13:15:27.460Z,100355.37
2023-04-18T13:18:30.234Z,100353.84
2023-04-18T13:21:32.456Z,100353.62
2023-04-18T13:24:37.089Z,100354.75
2023-04-18T13:27:41.963Z,100349.50
2023-04-18T13:30:44.838Z,100354.53
2023-04-18T13:33:47.190Z,100362.59
2023-04-18T13:36:49.759Z,100353.03
2023-04-18T13:39:52.430Z,100356.44
2023-04-18T13:42:55.101Z,100350.78
2023-04-18T13:45:57.491Z,100348.44
2023-04-18T13:49:00.053Z,100346.28
2023-04-18T13:52:02.868Z,100346.41
2023-04-18T13:55:05.920Z,100356.47
2023-04-18T13:58:09.757Z,100342.59
2023-04-18T14:01:17.064Z,100346.25
2023-04-18T14:04:23.573Z,100354.69
2023-04-18T14:07:26.100Z,100350.97
2023-04-18T14:10:28.914Z,100335.63
2023-04-18T14:13:32.135Z,100328.34
2023-04-18T14:16:34.848Z,100337.78
2023-04-18T14:22:39.653Z,100335.19
2023-04-18T14:25:42.015Z,100327.84
2023-04-18T14:28:45.949Z,100329.47
2023-04-18T14:31:48.575Z,100328.84
2023-04-18T14:34:52.746Z,100331.44
2023-04-18T14:37:55.285Z,100332.34
2023-04-18T14:40:58.541Z,100324.25
2023-04-18T14:44:01.227Z,100330.47
2023-04-18T14:47:04.139Z,100325.19
2023-04-18T14:50:07.545Z,100329.06
2023-04-18T14:53:10.919Z,100330.53
2023-04-18T14:56:14.810Z,100330.16
2023-04-18T14:59:18.746Z,100335.50
2023-04-18T15:02:21.678Z,100333.59
2023-04-18T15:05:24.455Z,100331.69
2023-04-18T15:08:27.063Z,100336.34
2023-04-18T15:11:29.862Z,100332.06
2023-04-18T15:14:33.015Z,100336.47
2023-04-18T15:17:35.954Z,100325.63
2023-04-18T15:20:39.559Z,100323.47
2023-04-18T15:23:42.361Z,100327.91
2023-04-18T15:26:45.354Z,100325.78
2023-04-18T15:29:48.084Z,100334.66
2023-04-18T15:32:50.510Z,100336.28
2023-04-18T15:35:54.925Z,100329.63
2023-04-18T15:38:57.314Z,100332.19
2023-04-18T15:41:59.943Z,100327.56
2023-04-18T15:45:04.125Z,100330.31
2023-04-18T15:48:06.909Z,100334.47
2023-04-18T15:51:09.189Z,100333.88
2023-04-18T15:54:11.918Z,100333.47
2023-04-18T15:57:14.336Z,100332.63
2023-04-18T16:00:20.137Z,100327.09
2023-04-18T16:03:23.841Z,100336.00
2023-04-18T16:06:27.382Z,100337.31
2023-04-18T16:09:30.010Z,100342.81
2023-04-18T16:12:32.437Z,100340.19
2023-04-18T16:15:35.755Z,100335.31
2023-04-18T16:18:39.152Z,100344.81
2023-04-18T16:21:42.368Z,100341.53
2023-04-18T16:24:44.650Z,100346.06
2023-04-18T16:27:47.271Z,100349.78
2023-04-18T16:30:49.919Z,100348.94
2023-04-18T16:33:52.971Z,100350.38
2023-04-18T16:36:55.711Z,100346.44
2023-04-18T16:40:07.183Z,100349.16
2023-04-18T16:43:09.554Z,100346.47
2023-04-18T16:46:13.911Z,100351.81
2023-04-18T16:49:16.455Z,100349.53
2023-04-18T16:52:19.855Z,100348.94
2023-04-18T16:55:22.166Z,100353.28
2023-04-18T16:58:24.863Z,100352.44
2023-04-18T17:01:27.105Z,100347.06
2023-04-18T17:04:29.941Z,100354.25
2023-04-18T17:07:32.293Z,100350.97
2023-04-18T17:10:34.894Z,100361.00
2023-04-18T17:13:37.174Z,100359.97
2023-04-18T17:16:41.040Z,100360.75
2023-04-18T17:19:43.546Z,100352.72
2023-04-18T17:22:46.134Z,100353.66
2023-04-18T17:25:48.892Z,100358.53
2023-04-18T17:28:51.486Z,100363.59
2023-04-18T17:31:53.992Z,100363.97
2023-04-18T17:34:56.765Z,100360.22
2023-04-18T17:37:59.090Z,100374.50
2023-04-18T17:41:02.523Z,100376.22
2023-04-18T17:44:05.716Z,100371.19
2023-04-18T17:47:08.270Z,100375.59
2023-04-18T17:50:10.932Z,100385.09
2023-04-18T17:53:13.781Z,100380.28
2023-04-18T17:56:16.595Z,100383.47
2023-04-18T17:59:19.409Z,100387.88
2023-04-18T18:02:23.588Z,100388.84
2023-04-18T18:05:26.289Z,100389.34
2023-04-18T18:08:29.600Z,100391.66
2023-04-18T18:11:32.086Z,100392.31
2023-04-18T18:14:34.318Z,100398.94
2023-04-18T18:17:37.112Z,100398.31
2023-04-18T18:20:41.899Z,100404.28
2023-04-18T18:23:44.395Z,100405.94
2023-04-18T18:26:46.677Z,100406.19
2023-04-18T18:29:50.386Z,100402.50
2023-04-18T18:32:53.535Z,100403.84
2023-04-18T18:35:58.541Z,100409.44
2023-04-18T18:39:01.225Z,100409.94
2023-04-18T18:42:03.940Z,100408.00
2023-04-18T18:45:07.470Z,100414.13
2023-04-18T18:48:10.430Z,100412.69
2023-04-18T18:51:12.823Z,100418.75
2023-04-18T18:54:15.389Z,100423.53
2023-04-18T18:57:17.701Z,100426.19
2023-04-18T19:00:20.527Z,100427.97
2023-04-18T19:03:23.459Z,100423.78
2023-04-18T19:06:26.613Z,100430.97
2023-04-18T19:09:29.298Z,100433.31
2023-04-18T19:12:32.066Z,100438.13
2023-04-18T19:15:34.438Z,100440.69
2023-04-18T19:18:37.294Z,100454.66
2023-04-18T19:21:42.763Z,100457.91
2023-04-18T19:24:45.777Z,100467.87
2023-04-18T19:27:48.102Z,100467.22
2023-04-18T19:30:50.894Z,100470.44
2023-04-18T19:33:53.231Z,100463.50
2023-04-18T19:36:55.768Z,100468.34
2023-04-18T19:39:58.041Z,100466.47
2023-04-18T19:43:00.818Z,100468.72
2023-04-18T19:46:03.269Z,100475.47
2023-04-18T19:49:05.944Z,100481.37
2023-04-18T19:52:08.151Z,100481.37
2023-04-18T19:55:10.844Z,100478.69
2023-04-18T19:58:32.711Z,100480.53
2023-04-18T20:01:35.948Z,100481.53
2023-04-18T20:04:39.693Z,100483.59
2023-04-18T20:07:42.688Z,100486.69
2023-04-18T20:10:45.252Z,100486.03
2023-04-18T20:13:47.684Z,100484.75
2023-04-18T20:16:50.215Z,100483.59
2023-04-18T20:19:52.757Z,100486.16
2023-04-18T20:22:55.342Z,100486.97
2023-04-18T20:25:57.632Z,100485.06
2023-04-18T20:29:00.358Z,100490.22
2023-04-18T20:32:02.660Z,100480.94
2023-04-18T20:35:05.626Z,100479.06
2023-04-18T20:38:09.837Z,100471.91
2023-04-18T20:41:18.258Z,100476.78
2023-04-18T20:44:21.732Z,100483.50
2023-04-18T20:47:24.414Z,100483.69
2023-04-18T20:50:27.477Z,100481.56
2023-04-18T20:53:30.397Z,100488.84
2023-04-18T20:56:33.775Z,100481.00
2023-04-18T20:59:36.385Z,100480.19
2023-04-18T21:02:38.950Z,100484.50
2023-04-18T21:05:42.698Z,100489.94
2023-04-18T21:08:44.942Z,100483.94
2023-04-18T21:11:48.208Z,100482.66
2023-04-18T21:14:50.679Z,100475.41
2023-04-18T21:17:53.412Z,100474.13
2023-04-18T21:20:55.654Z,100481.66
2023-04-18T21:23:58.340Z,100474.84
2023-04-18T21:27:00.600Z,100471.88
2023-04-18T21:30:05.848Z,100478.25
2023-04-18T21:33:08.140Z,100474.84
2023-04-18T21:36:10.679Z,100468.88
2023-04-18T21:39:13.004Z,100469.72
2023-04-18T21:42:15.706Z,100477.03
2023-04-18T21:45:18.251Z,100472.06
2023-04-18T21:48:21.719Z,100470.78
2023-04-18T21:51:24.045Z,100468.28
2023-04-18T21:54:27.073Z,100465.78
2023-04-18T21:57:29.405Z,100470.13
2023-04-18T22:00:32.010Z,100465.34
2023-04-18T22:03:34.860Z,100465.88
2023-04-18T22:06:37.394Z,100463.22
2023-04-18T22:09:40.093Z,100461.44
2023-04-18T22:12:43.888Z,100459.81
2023-04-18T22:15:46.543Z,100453.19
2023-04-18T22:18:51.911Z,100448.88
2023-04-18T22:21:54.502Z,100451.72
2023-04-18T22:24:56.877Z,100452.44
2023-04-18T22:27:59.573Z,100449.69
2023-04-18T22:31:02.007Z,100452.62
2023-04-18T22:34:04.846Z,100445.19
2023-04-18T22:37:07.105Z,100448.62
2023-04-18T22:40:09.909Z,100443.81
2023-04-18T22:43:13.651Z,100437.19
2023-04-18T22:46:16.290Z,100435.81
2023-04-18T22:49:18.594Z,100430.94
2023-04-18T22:52:24.761Z,100425.62
2023-04-18T22:55:27.155Z,100424.06
2023-04-18T22:58:31.335Z,100425.75
2023-04-18T23:01:33.710Z,100424.66
2023-04-18T23:04:36.599Z,100419.09
2023-04-18T23:07:38.912Z,100412.03
2023-04-18T23:10:41.506Z,100414.03
2023-04-18T23:13:43.730Z,100409.53
2023-04-18T23:16:46.297Z,100411.38
2023-04-18T23:19:48.691Z,100401.22
2023-04-18T23:22:53.742Z,100403.22
2023-04-18T23:25:56.096Z,100400.84
2023-04-18T23:28:59.009Z,100395.41
2023-04-18T23:32:01.331Z,100389.19
2023-04-18T23:35:04.976Z,100387.69
2023-04-18T23:38:07.246Z,100387.25
2023-04-18T23:41:09.844Z,100380.91
2023-04-18T23:44:12.655Z,100373.47
2023-04-18T23:47:15.344Z,100370.91
2023-04-18T23:50:17.648Z,100364.22
2023-04-18T23:53:20.895Z,100363.47
2023-04-18T23:56:23.310Z,100362.03
2023-04-18T23:59:25.985Z,100360.91
